Time;durP1;ratioP1;P1;durP2;ratioP2;P2;SDS_P1;SDS_P2;PMS_P1;PMS_P2;Temp;Humidity;BMP_temperature;BMP_pressure;BME280_temperature;BME280_humidity;BME280_pressure;Samples;Min_cycle;Max_cycle;Signal;HPM_P1;HPM_P2
2023/06/01 00:01:08;;;;;;;1999.90;999.90;;;;;;;23.72;40.74;102516.56;5071552;28;20040;-68
2023/06/01 00:03:36;;;;;;;1999.90;999.90;;;;;;;23.61;41.63;102510.78;5059380;28;20109;-68
2023/06/01 00:06:02;;;;;;;1999.90;999.90;;;;;;;21.91;44.25;102522.78;5062180;28;20032;-68
2023/06/01 00:08:27;;;;;;;1999.90;999.90;;;;;;;20.75;46.17;102528.72;5071518;28;20031;-68
2023/06/01 00:10:53;;;;;;;1999.90;999.90;;;;;;;21.98;44.77;102520.81;5070082;28;20016;-68
2023/06/01 00:13:19;;;;;;;1999.90;999.90;;;;;;;21.70;44.67;102513.69;5070223;28;20119;-68
2023/06/01 00:15:44;;;;;;;1999.90;999.90;;;;;;;21.83;44.05;102517.72;5050729;28;20024;-68
2023/06/01 00:18:12;;;;;;;1999.90;999.90;;;;;;;22.14;43.65;102519.41;5053460;28;20032;-68
2023/06/01 00:20:38;;;;;;;1999.90;999.90;;;;;;;22.01;43.18;102518.06;5071188;28;20043;-68
2023/06/01 00:23:04;;;;;;;1999.90;999.90;;;;;;;21.89;44.69;102518.44;5069751;28;20059;-68
2023/06/01 00:25:29;;;;;;;1999.90;999.90;;;;;;;22.29;44.18;102522.50;5070452;28;20047;-68
2023/06/01 00:27:55;;;;;;;1999.90;999.90;;;;;;;21.46;45.77;102509.91;5071697;28;20194;-68
2023/06/01 00:30:21;;;;;;;1999.90;999.90;;;;;;;21.81;44.60;102514.22;5052795;28;20036;-68
2023/06/01 00:32:46;;;;;;;1999.90;999.90;;;;;;;21.85;43.84;102510.53;5049850;28;20029;-68
2023/06/01 00:35:11;;;;;;;1999.90;999.90;;;;;;;22.90;42.03;102508.03;5065278;28;20432;-67
2023/06/01 00:37:37;;;;;;;1999.90;999.90;;;;;;;21.56;44.80;102506.13;5070499;28;20035;-67
2023/06/01 00:40:02;;;;;;;1999.90;999.90;;;;;;;21.32;45.57;102507.66;5067912;28;20385;-67
2023/06/01 00:42:28;;;;;;;1999.90;999.90;;;;;;;21.35;43.96;102507.59;5070384;28;20025;-68
2023/06/01 00:44:53;;;;;;;1999.90;999.90;;;;;;;21.83;43.21;102504.41;5068160;28;20523;-68
2023/06/01 00:47:19;;;;;;;1999.90;999.90;;;;;;;21.66;44.80;102501.38;5069161;28;20103;-67
2023/06/01 00:49:45;;;;;;;1999.90;999.90;;;;;;;21.01;45.23;102503.22;5069918;28;20111;-67
2023/06/01 00:52:11;;;;;;;1999.90;999.90;;;;;;;21.17;44.47;102507.22;5070609;28;20123;-68
2023/06/01 00:54:37;;;;;;;1999.90;999.90;;;;;;;21.11;46.04;102510.03;5068851;28;20039;-67
2023/06/01 00:57:03;;;;;;;1999.90;999.90;;;;;;;20.33;47.00;102515.56;5069419;28;20031;-67
2023/06/01 00:59:28;;;;;;;1999.90;999.90;;;;;;;21.41;44.90;102504.75;5056146;28;20044;-67
2023/06/01 01:01:53;;;;;;;1999.90;999.90;;;;;;;22.09;43.01;102507.16;5049284;28;20338;-67
2023/06/01 01:04:25;;;;;;;1999.90;999.90;;;;;;;20.67;46.23;102509.41;5052634;28;20032;-67
2023/06/01 01:07:20;;;;;;;1999.90;999.90;;;;;;;21.25;45.03;102506.97;5049471;28;20028;-67
2023/06/01 01:09:56;;;;;;;1999.90;999.90;;;;;;;21.38;45.29;102512.81;5049935;28;20353;-67
2023/06/01 01:12:44;;;;;;;1999.90;999.90;;;;;;;21.13;45.01;102513.53;5058464;28;20028;-66
2023/06/01 01:15:20;;;;;;;1999.90;999.90;;;;;;;21.40;44.72;102510.97;5066952;28;20028;-67
2023/06/01 01:17:51;;;;;;;1999.90;999.90;;;;;;;20.61;46.37;102512.25;5069457;28;20029;-67
2023/06/01 01:20:26;;;;;;;1999.90;999.90;;;;;;;21.37;44.46;102508.41;5070079;28;20063;-67
2023/06/01 01:23:29;;;;;;;1999.90;999.90;;;;;;;21.10;45.56;102505.63;5060007;28;20036;-67
2023/06/01 01:26:19;;;;;;;1999.90;999.90;;;;;;;20.98;45.29;102506.84;5050773;28;20499;-67
2023/06/01 01:28:58;;;;;;;1999.90;999.90;;;;;;;22.03;43.77;102509.09;5050597;28;20040;-67
2023/06/01 01:31:24;;;;;;;1999.90;999.90;;;;;;;22.12;43.06;102505.28;5069117;28;20047;-67
2023/06/01 01:33:52;;;;;;;1999.90;999.90;;;;;;;22.06;43.84;102508.13;5055130;28;20477;-67
2023/06/01 01:36:19;;;;;;;1999.90;999.90;;;;;;;22.22;43.16;102505.84;5049184;28;20029;-67
2023/06/01 01:38:44;;;;;;;1999.90;999.90;;;;;;;22.37;42.88;102509.81;5050141;28;20072;-67
2023/06/01 01:41:10;;;;;;;1999.90;999.90;;;;;;;21.56;43.45;102500.81;5070379;28;20123;-66
2023/06/01 01:43:36;;;;;;;1999.90;999.90;;;;;;;20.32;46.33;102514.69;5051616;28;20032;-66
2023/06/01 01:46:18;;;;;;;1999.90;999.90;;;;;;;21.23;44.38;102513.28;5070539;28;20033;-66
2023/06/01 01:48:52;;;;;;;1999.90;999.90;;;;;;;19.75;47.37;102517.78;5058644;28;20024;-67
2023/06/01 01:51:27;;;;;;;1999.90;999.90;;;;;;;20.69;46.25;102518.25;5048877;28;20469;-66
2023/06/01 01:53:54;;;;;;;1999.90;999.90;;;;;;;20.50;46.42;102505.41;5068357;28;20083;-66
2023/06/01 01:56:21;;;;;;;1999.90;999.90;;;;;;;21.07;45.22;102503.03;5068687;28;20025;-66
2023/06/01 01:58:48;;;;;;;1999.90;999.90;;;;;;;21.22;43.89;102506.19;5057080;28;20044;-66
2023/06/01 02:01:15;;;;;;;1999.90;999.90;;;;;;;21.63;44.31;102501.50;5069296;28;20035;-66
2023/06/01 02:03:43;;;;;;;1999.90;999.90;;;;;;;22.10;43.34;102500.91;5057489;28;20381;-66
2023/06/01 02:06:09;;;;;;;1999.90;999.90;;;;;;;21.51;43.91;102508.91;5063239;28;20113;-66
2023/06/01 02:08:34;;;;;;;1999.90;999.90;;;;;;;20.45;46.57;102509.94;5067952;28;20051;-66
2023/06/01 02:11:00;;;;;;;1999.90;999.90;;;;;;;19.88;47.39;102502.47;5066526;28;20237;-65
2023/06/01 02:13:25;;;;;;;1999.90;999.90;;;;;;;19.74;47.88;102500.09;5063976;28;20055;-66
2023/06/01 02:15:51;;;;;;;1999.90;999.90;;;;;;;21.48;44.23;102492.16;5069741;28;20024;-66
2023/06/01 02:18:17;;;;;;;1999.90;999.90;;;;;;;19.83;47.13;102502.59;5061871;28;20040;-66
2023/06/01 02:20:45;;;;;;;1999.90;999.90;;;;;;;20.67;45.16;102496.13;5048692;28;20056;-66
2023/06/01 02:23:10;;;;;;;1999.90;999.90;;;;;;;21.78;42.71;102482.38;5048881;28;20024;-67
2023/06/01 02:25:36;;;;;;;1999.90;999.90;;;;;;;21.98;43.40;102491.53;5062866;28;20043;-66
2023/06/01 02:28:01;;;;;;;1999.90;999.90;;;;;;;20.10;46.44;102492.22;5066912;28;20499;-66
2023/06/01 02:30:27;;;;;;;1999.90;999.90;;;;;;;20.34;46.48;102491.63;5053945;28;20066;-66
2023/06/01 02:32:52;;;;;;;1999.90;999.90;;;;;;;19.75;47.50;102486.78;5051230;28;20104;-66
2023/06/01 02:35:18;;;;;;;1999.90;999.90;;;;;;;20.89;44.51;102485.81;5068538;28;20396;-66
2023/06/01 02:37:43;;;;;;;1999.90;999.90;;;;;;;19.56;47.96;102480.16;5067561;28;20036;-66
2023/06/01 02:40:11;;;;;;;1999.90;999.90;;;;;;;20.90;45.20;102484.06;5054761;28;20037;-67
2023/06/01 02:42:38;;;;;;;1999.90;999.90;;;;;;;21.48;43.79;102484.16;5047828;28;20033;-66
2023/06/01 02:45:05;;;;;;;1999.90;999.90;;;;;;;20.14;47.78;102488.59;5048067;28;20099;-67
2023/06/01 02:47:30;;;;;;;1999.90;999.90;;;;;;;19.93;46.88;102482.88;5047704;28;20108;-65
2023/06/01 02:49:55;;;;;;;1999.90;999.90;;;;;;;21.08;44.39;102488.84;5057503;28;20159;-66
2023/06/01 02:52:21;;;;;;;1999.90;999.90;;;;;;;21.41;43.32;102485.28;5053355;28;20025;-66
2023/06/01 02:54:46;;;;;;;1999.90;999.90;;;;;;;19.64;46.97;102489.69;5058264;28;20025;-66
2023/06/01 02:57:11;;;;;;;1999.90;999.90;;;;;;;18.92;48.67;102489.38;5054878;28;20111;-66
2023/06/01 02:59:37;;;;;;;1999.90;999.90;;;;;;;20.00;47.46;102480.97;5066444;28;20090;-66
2023/06/01 03:02:02;;;;;;;1999.90;999.90;;;;;;;19.63;46.73;102481.75;5069252;28;20561;-66
2023/06/01 03:04:28;;;;;;;1999.90;999.90;;;;;;;19.77;46.62;102489.41;5053714;28;20024;-66
2023/06/01 03:06:54;;;;;;;1999.90;999.90;;;;;;;21.42;43.65;102476.34;5058241;28;20032;-66
2023/06/01 03:09:19;;;;;;;1999.90;999.90;;;;;;;21.11;44.30;102483.44;5052246;28;20082;-66
2023/06/01 03:11:45;;;;;;;1999.90;999.90;;;;;;;21.32;43.65;102481.06;5068040;28;20021;-67
2023/06/01 03:14:10;;;;;;;1999.90;999.90;;;;;;;21.80;43.31;102483.22;5063963;28;20036;-66
2023/06/01 03:16:36;;;;;;;1999.90;999.90;;;;;;;21.46;43.90;102478.88;5049577;28;20025;-66
2023/06/01 03:19:01;;;;;;;1999.90;999.90;;;;;;;20.22;46.89;102488.41;5062165;28;20028;-66
2023/06/01 03:21:27;;;;;;;1999.90;999.90;;;;;;;21.11;44.49;102485.22;5047521;28;20033;-66
2023/06/01 03:23:53;;;;;;;1999.90;999.90;;;;;;;20.36;45.30;102488.06;5047830;28;20032;-68
2023/06/01 03:26:20;;;;;;;1999.90;999.90;;;;;;;20.51;45.70;102477.03;5059430;28;20021;-66
2023/06/01 03:28:46;;;;;;;1999.90;999.90;;;;;;;19.83;46.49;102484.88;5063485;28;20024;-66
2023/06/01 03:31:12;;;;;;;1999.90;999.90;;;;;;;20.57;44.94;102484.00;5048121;28;20400;-66
2023/06/01 03:33:38;;;;;;;1999.90;999.90;;;;;;;20.95;44.83;102487.44;5053845;28;20039;-67
2023/06/01 03:36:04;;;;;;;1999.90;999.90;;;;;;;19.70;47.51;102487.81;5067981;28;20055;-66
2023/06/01 03:38:30;;;;;;;1999.90;999.90;;;;;;;20.08;46.72;102494.91;5065088;28;20028;-66
2023/06/01 03:40:55;;;;;;;1999.90;999.90;;;;;;;20.07;46.26;102490.53;5048013;28;20408;-66
2023/06/01 03:43:21;;;;;;;1999.90;999.90;;;;;;;20.28;45.47;102493.59;5064676;28;20033;-65
2023/06/01 03:45:46;;;;;;;1999.90;999.90;;;;;;;21.09;44.20;102500.34;5067275;28;20112;-66
2023/06/01 03:48:11;;;;;;;1999.90;999.90;;;;;;;21.19;43.90;102494.72;5067673;28;20491;-66
2023/06/01 03:50:37;;;;;;;1999.90;999.90;;;;;;;19.79;47.16;102498.22;5063399;28;20040;-66
2023/06/01 03:53:02;;;;;;;1999.90;999.90;;;;;;;20.81;45.29;102486.06;5067253;28;20142;-66
2023/06/01 03:55:29;;;;;;;1999.90;999.90;;;;;;;21.65;42.88;102491.66;5055310;28;20032;-66
2023/06/01 03:57:54;;;;;;;1999.90;999.90;;;;;;;21.69;42.79;102487.97;5046842;28;20029;-67
2023/06/01 04:00:20;;;;;;;1999.90;999.90;;;;;;;21.81;42.72;102490.25;5048946;28;20106;-66
2023/06/01 04:02:55;;;;;;;1999.90;999.90;;;;;;;22.32;41.60;102490.44;5063750;28;20028;-66
2023/06/01 04:05:21;;;;;;;1999.90;999.90;;;;;;;22.03;42.42;102486.94;5059219;28;20476;-66
2023/06/01 04:07:48;;;;;;;1999.90;999.90;;;;;;;21.67;42.40;102487.16;5065648;28;20025;-66
2023/06/01 04:10:16;;;;;;;1999.90;999.90;;;;;;;20.89;44.17;102492.94;5065991;28;20097;-66
2023/06/01 04:12:43;;;;;;;1999.90;999.90;;;;;;;19.75;47.28;102505.38;5067290;28;20024;-67
2023/06/01 04:15:11;;;;;;;1999.90;999.90;;;;;;;20.61;45.72;102494.50;5049303;28;20028;-66
2023/06/01 04:17:40;;;;;;;1999.90;999.90;;;;;;;21.78;42.95;102494.81;5050376;28;20464;-66
2023/06/01 04:20:10;;;;;;;1999.90;999.90;;;;;;;21.54;42.73;102486.66;5050232;28;20021;-66
2023/06/01 04:22:36;;;;;;;1999.90;999.90;;;;;;;20.56;44.67;102493.75;5051282;28;20059;-66
2023/06/01 04:25:05;;;;;;;1999.90;999.90;;;;;;;20.99;44.36;102478.47;5067525;28;20037;-66
2023/06/01 04:27:30;;;;;;;1999.90;999.90;;;;;;;20.25;45.43;102493.63;5070796;28;20025;-66
2023/06/01 04:29:58;;;;;;;1999.90;999.90;;;;;;;20.61;45.14;102488.34;5070411;28;20115;-66
2023/06/01 04:32:24;;;;;;;1999.90;999.90;;;;;;;20.90;45.20;102490.22;5071662;28;20020;-66
2023/06/01 04:34:50;;;;;;;1999.90;999.90;;;;;;;21.96;42.59;102482.72;5061573;28;20074;-66
2023/06/01 04:37:19;;;;;;;1999.90;999.90;;;;;;;21.47;42.54;102485.06;5050333;28;20029;-66
2023/06/01 04:39:48;;;;;;;1999.90;999.90;;;;;;;22.22;41.77;102486.34;5060300;28;20079;-66
2023/06/01 04:42:16;;;;;;;1999.90;999.90;;;;;;;21.69;42.50;102487.97;5071967;28;20029;-66
2023/06/01 04:44:43;;;;;;;1999.90;999.90;;;;;;;22.26;41.99;102488.84;5064132;28;20044;-66
2023/06/01 04:47:08;;;;;;;1999.90;999.90;;;;;;;21.96;41.48;102493.38;5050062;28;20124;-67
2023/06/01 04:49:36;;;;;;;1999.90;999.90;;;;;;;21.18;43.83;102490.34;5054058;28;20115;-66
2023/06/01 04:52:02;;;;;;;1999.90;999.90;;;;;;;22.91;40.73;102491.09;5057518;28;20572;-66
2023/06/01 04:54:27;;;;;;;1999.90;999.90;;;;;;;20.50;45.07;102492.13;5054102;28;20075;-66
2023/06/01 04:56:53;;;;;;;1999.90;999.90;;;;;;;21.89;43.19;102497.16;5062987;28;20056;-66
2023/06/01 04:59:18;;;;;;;1999.90;999.90;;;;;;;21.11;43.67;102498.53;5052827;28;20045;-66
2023/06/01 05:01:43;;;;;;;1999.90;999.90;;;;;;;21.18;43.54;102500.97;5063824;28;20438;-66
2023/06/01 05:04:10;;;;;;;1999.90;999.90;;;;;;;21.81;41.84;102500.91;5060514;28;20140;-67
2023/06/01 05:06:35;;;;;;;1999.90;999.90;;;;;;;21.35;43.04;102502.28;5050433;28;20381;-66
2023/06/01 05:09:01;;;;;;;1999.90;999.90;;;;;;;20.75;44.33;102496.81;5056915;28;20032;-66
2023/06/01 05:11:26;;;;;;;1999.90;999.90;;;;;;;22.07;41.48;102495.69;5067246;28;20496;-67
2023/06/01 05:13:52;;;;;;;1999.90;999.90;;;;;;;21.83;41.54;102501.75;5061330;28;20484;-66
2023/06/01 05:16:17;;;;;;;1999.90;999.90;;;;;;;21.48;43.14;102503.63;5069580;28;20032;-67
2023/06/01 05:18:43;;;;;;;1999.90;999.90;;;;;;;22.43;40.45;102514.94;5060726;28;20296;-66
2023/06/01 05:21:08;;;;;;;1999.90;999.90;;;;;;;22.18;40.86;102504.19;5054987;28;20507;-67
2023/06/01 05:23:34;;;;;;;1999.90;999.90;;;;;;;22.70;39.80;102501.59;5062493;28;20134;-66
2023/06/01 05:26:02;;;;;;;1999.90;999.90;;;;;;;22.64;40.45;102501.81;5051299;28;20374;-66
2023/06/01 05:28:31;;;;;;;1999.90;999.90;;;;;;;22.69;40.24;102499.84;5059200;28;20020;-66
2023/06/01 05:30:57;;;;;;;1999.90;999.90;;;;;;;21.60;42.52;102493.59;5067608;28;20941;-66
2023/06/01 05:33:22;;;;;;;1999.90;999.90;;;;;;;22.59;40.74;102498.44;5050748;28;20033;-67
2023/06/01 05:35:47;;;;;;;1999.90;999.90;;;;;;;21.97;41.32;102498.66;5063254;28;20035;-66
2023/06/01 05:38:13;;;;;;;1999.90;999.90;;;;;;;20.64;44.05;102498.88;5061107;28;20335;-67
2023/06/01 05:40:38;;;;;;;1999.90;999.90;;;;;;;20.75;43.92;102510.13;5066864;28;20043;-67
2023/06/01 05:43:04;;;;;;;1999.90;999.90;;;;;;;21.48;43.06;102498.31;5051460;28;20032;-67
2023/06/01 05:45:29;;;;;;;1999.90;999.90;;;;;;;20.63;43.24;102513.91;5060536;28;20040;-67
2023/06/01 05:47:55;;;;;;;1999.90;999.90;;;;;;;21.75;41.37;102510.88;5059176;28;20500;-67
2023/06/01 05:50:20;;;;;;;1999.90;999.90;;;;;;;21.14;42.16;102509.97;5067349;28;20035;-66
2023/06/01 05:52:45;;;;;;;1999.90;999.90;;;;;;;21.16;42.39;102508.13;5068864;28;20052;-67
2023/06/01 05:55:11;;;;;;;1999.90;999.90;;;;;;;22.26;39.59;102514.63;5056678;28;20443;-66
2023/06/01 05:57:36;;;;;;;1999.90;999.90;;;;;;;22.17;40.27;102511.31;5050203;28;20589;-66
2023/06/01 06:00:07;;;;;;;1999.90;999.90;;;;;;;22.78;39.27;102515.53;5048665;28;20516;-66
2023/06/01 06:02:32;;;;;;;1999.90;999.90;;;;;;;22.36;39.75;102508.94;5054278;28;20024;-66
2023/06/01 06:04:58;;;;;;;1999.90;999.90;;;;;;;22.30;40.46;102514.44;5066589;28;20460;-68
2023/06/01 06:07:23;;;;;;;1999.90;999.90;;;;;;;21.11;41.86;102510.03;5063492;28;20017;-68
2023/06/01 06:09:49;;;;;;;1999.90;999.90;;;;;;;22.30;41.08;102503.81;5048063;28;20052;-68
2023/06/01 06:12:14;;;;;;;1999.90;999.90;;;;;;;20.71;43.48;102505.78;5050502;28;20100;-68
2023/06/01 06:14:40;;;;;;;1999.90;999.90;;;;;;;21.26;42.29;102502.53;5061367;28;20446;-68
2023/06/01 06:17:06;;;;;;;1999.90;999.90;;;;;;;21.85;41.50;102502.56;5067843;28;20035;-68
2023/06/01 06:19:31;;;;;;;1999.90;999.90;;;;;;;22.99;39.02;102497.03;5068829;28;20025;-68
2023/06/01 06:21:57;;;;;;;1999.90;999.90;;;;;;;23.52;38.22;102502.19;5061181;28;20025;-68
2023/06/01 06:24:22;;;;;;;1999.90;999.90;;;;;;;23.55;38.52;102496.72;5050956;28;20052;-68
2023/06/01 06:26:47;;;;;;;1999.90;999.90;;;;;;;22.47;40.00;102503.25;5059635;28;20578;-68
2023/06/01 06:29:14;;;;;;;1999.90;999.90;;;;;;;22.08;40.20;102497.41;5061251;28;20485;-69
2023/06/01 06:31:39;;;;;;;1999.90;999.90;;;;;;;23.74;38.79;102496.03;5051598;28;20036;-68
2023/06/01 06:34:05;;;;;;;1999.90;999.90;;;;;;;21.78;40.67;102498.34;5049642;28;20049;-69
2023/06/01 06:36:30;;;;;;;1999.90;999.90;;;;;;;23.27;38.95;102509.38;5059660;28;20028;-69
2023/06/01 06:38:55;;;;;;;1999.90;999.90;;;;;;;22.84;39.26;102507.31;5056716;28;20534;-69
2023/06/01 06:41:21;;;;;;;1999.90;999.90;;;;;;;23.11;37.43;102506.38;5053595;28;20506;-68
2023/06/01 06:43:46;;;;;;;1999.90;999.90;;;;;;;24.03;36.88;102502.88;5061763;28;20752;-68
2023/06/01 06:46:12;;;;;;;1999.90;999.90;;;;;;;22.32;39.66;102506.41;5054926;28;20025;-69
2023/06/01 06:48:37;;;;;;;1999.90;999.90;;;;;;;22.32;39.52;102511.72;5069937;28;20032;-68
2023/06/01 06:51:03;;;;;;;1999.90;999.90;;;;;;;23.85;37.97;102504.47;5067923;28;20016;-69
2023/06/01 06:53:28;;;;;;;1999.90;999.90;;;;;;;23.02;38.99;102507.59;5067640;28;20651;-68
2023/06/01 06:55:53;;;;;;;1999.90;999.90;;;;;;;23.16;38.75;102513.31;5067825;28;20477;-68
2023/06/01 06:58:19;;;;;;;1999.90;999.90;;;;;;;23.59;37.38;102507.28;5067981;28;20112;-69
2023/06/01 07:00:44;;;;;;;1999.90;999.90;;;;;;;24.97;35.18;102519.44;5067208;28;20447;-68
2023/06/01 07:03:10;;;;;;;1999.90;999.90;;;;;;;24.15;36.98;102517.56;5069408;28;20025;-68
2023/06/01 07:05:35;;;;;;;1999.90;999.90;;;;;;;23.23;38.10;102521.09;5068269;28;20048;-68
2023/06/01 07:08:01;;;;;;;1999.90;999.90;;;;;;;22.76;39.40;102521.84;5067489;28;20021;-68
2023/06/01 07:10:26;;;;;;;1999.90;999.90;;;;;;;23.88;37.88;102520.38;5068270;28;20032;-68
2023/06/01 07:12:52;;;;;;;1999.90;999.90;;;;;;;24.67;36.08;102513.63;5067210;28;20032;-68
2023/06/01 07:15:17;;;;;;;1999.90;999.90;;;;;;;24.91;35.51;102514.38;5069640;28;20026;-68
2023/06/01 07:17:43;;;;;;;1999.90;999.90;;;;;;;25.29;35.19;102510.91;5067488;28;20472;-69
2023/06/01 07:20:12;;;;;;;1999.90;999.90;;;;;;;24.48;36.80;102514.41;5067514;28;20035;-68
2023/06/01 07:22:44;;;;;;;1999.90;999.90;;;;;;;24.34;35.78;102527.47;5068411;28;20116;-68
2023/06/01 07:25:12;;;;;;;1999.90;999.90;;;;;;;25.11;34.99;102518.81;5068200;28;20020;-68
2023/06/01 07:27:43;;;;;;;1999.90;999.90;;;;;;;25.21;35.00;102514.81;5067182;28;20028;-68
2023/06/01 07:30:10;;;;;;;49.33;42.33;;;;;;;24.00;36.24;102518.16;5069482;28;20024;-68
2023/06/01 07:32:36;;;;;;;1999.90;999.90;;;;;;;24.16;37.00;102519.28;5067966;28;20392;-69
2023/06/01 07:35:01;;;;;;;1999.90;999.90;;;;;;;23.62;37.90;102507.19;5066862;28;20113;-67
2023/06/01 07:37:27;;;;;;;1999.90;999.90;;;;;;;24.73;35.61;102513.38;5068054;28;20066;-69
2023/06/01 07:39:56;;;;;;;1999.90;999.90;;;;;;;23.27;37.91;102517.38;5067581;28;20082;-67
2023/06/01 07:42:21;;;;;;;1999.90;999.90;;;;;;;22.70;39.07;102528.25;5068625;28;20103;-68
2023/06/01 07:44:47;;;;;;;1999.90;999.90;;;;;;;23.25;38.60;102519.25;5067358;28;20135;-68
2023/06/01 07:47:12;;;;;;;1999.90;999.90;;;;;;;26.00;34.70;102518.31;5067729;28;20031;-69
2023/06/01 07:49:38;;;;;;;1999.90;999.90;;;;;;;27.50;31.76;102508.78;5067851;28;20025;-68
2023/06/01 07:52:07;;;;;;;1999.90;999.90;;;;;;;27.42;31.56;102511.03;5071399;28;20025;-68
2023/06/01 07:54:34;;;;;;;1999.90;999.90;;;;;;;26.69;30.95;102522.00;5071504;28;20024;-68
2023/06/01 07:56:59;;;;;;;1999.90;999.90;;;;;;;26.42;31.49;102519.81;5072240;28;20481;-68
2023/06/01 07:59:25;;;;;;;1999.90;999.90;;;;;;;26.66;31.65;102515.00;5071335;28;20098;-69
2023/06/01 08:01:51;;;;;;;950.67;519.30;;;;;;;25.24;33.80;102519.16;5071062;28;20502;-69
2023/06/01 08:04:20;;;;;;;1999.90;999.90;;;;;;;25.63;33.39;102509.38;5072362;28;20581;-68
2023/06/01 08:06:55;;;;;;;1999.90;999.90;;;;;;;23.55;35.66;102511.88;5072626;28;20016;-68
2023/06/01 08:09:23;;;;;;;1999.90;999.90;;;;;;;26.28;33.12;102517.81;5070756;28;20729;-68
2023/06/01 08:11:49;;;;;;;1508.45;757.85;;;;;;;26.40;32.38;102510.97;5071227;28;20031;-68
2023/06/01 08:14:15;;;;;;;172.55;154.48;;;;;;;27.16;30.59;102504.38;5071473;28;20025;-68
2023/06/01 08:16:43;;;;;;;1999.90;999.90;;;;;;;26.83;31.81;102510.59;5071337;28;20105;-68
2023/06/01 08:19:08;;;;;;;1999.90;999.90;;;;;;;27.43;30.82;102500.19;5070818;28;20021;-68
2023/06/01 08:21:34;;;;;;;234.82;211.80;;;;;;;26.10;33.35;102508.03;5072291;28;20025;-68
2023/06/01 08:24:02;;;;;;;1999.90;999.90;;;;;;;26.52;32.29;102510.34;5070347;28;20533;-68
2023/06/01 08:26:28;;;;;;;1999.90;999.90;;;;;;;26.38;33.01;102507.53;5071503;28;20033;-68
2023/06/01 08:28:53;;;;;;;1999.90;999.90;;;;;;;27.09;32.34;102503.84;5071534;28;20027;-69
2023/06/01 08:31:20;;;;;;;1999.90;999.90;;;;;;;27.75;29.69;102502.03;5070574;28;20026;-68
2023/06/01 08:33:46;;;;;;;1999.90;999.90;;;;;;;29.49;28.38;102498.81;5070533;28;20025;-68
2023/06/01 08:36:11;;;;;;;1999.90;999.90;;;;;;;27.17;29.52;102515.03;5070856;28;20078;-68
2023/06/01 08:38:37;;;;;;;1511.25;755.90;;;;;;;29.73;27.03;102506.25;5070147;28;20070;-68
2023/06/01 08:41:12;;;;;;;55.47;52.38;;;;;;;30.12;26.66;102505.47;5070836;28;20380;-67
2023/06/01 08:43:41;;;;;;;6.57;6.28;;;;;;;31.12;26.22;102510.38;5071984;28;20039;-66
2023/06/01 08:46:06;;;;;;;8.68;8.07;;;;;;;30.53;26.63;102513.56;5070248;28;20060;-66
2023/06/01 08:48:33;;;;;;;14.15;13.35;;;;;;;30.14;26.36;102516.13;5070724;28;20138;-66
2023/06/01 08:51:00;;;;;;;19.70;18.05;;;;;;;31.77;24.76;102505.69;5069992;28;20074;-67
2023/06/01 08:53:28;;;;;;;20.40;19.20;;;;;;;31.21;25.16;102506.13;5071591;28;20025;-67
2023/06/01 08:55:55;;;;;;;19.70;18.60;;;;;;;32.81;24.88;102498.72;5070083;28;20468;-67
2023/06/01 08:58:20;;;;;;;26.13;24.60;;;;;;;32.54;23.44;102497.16;5069382;28;20028;-66
2023/06/01 09:00:50;;;;;;;27.20;25.80;;;;;;;33.27;22.91;102492.31;5069608;28;20552;-67
2023/06/01 09:03:16;;;;;;;29.20;27.30;;;;;;;33.56;22.78;102493.63;5071320;28;20032;-67
2023/06/01 09:05:41;;;;;;;20.50;19.35;;;;;;;34.01;22.24;102492.66;5069114;28;20036;-66
2023/06/01 09:08:08;;;;;;;10.27;9.45;;;;;;;31.49;24.36;102488.78;5070409;28;20115;-66
2023/06/01 09:10:35;;;;;;;10.95;10.35;;;;;;;29.16;27.01;102491.03;5071305;28;20107;-66
2023/06/01 09:13:00;;;;;;;7.03;6.50;;;;;;;32.69;23.79;102489.66;5069321;28;20167;-67
2023/06/01 09:15:26;;;;;;;8.55;7.70;;;;;;;30.43;26.29;102495.28;5071616;28;20425;-66
2023/06/01 09:18:03;;;;;;;38.67;36.53;;;;;;;28.50;28.24;102488.72;5069661;28;20024;-67
2023/06/01 09:20:29;;;;;;;38.83;36.33;;;;;;;28.39;28.24;102480.44;5069506;28;20021;-66
2023/06/01 09:22:55;;;;;;;30.63;29.02;;;;;;;30.66;26.39;102484.75;5069643;28;20075;-67
2023/06/01 09:25:27;;;;;;;35.58;33.70;;;;;;;31.67;24.82;102472.19;5071281;28;20488;-67
2023/06/01 09:27:53;;;;;;;;;;;;;;;30.72;25.34;102484.34;5069447;28;20024;-66
2023/06/01 09:30:20;;;;;;;34.35;32.45;;;;;;;30.91;24.90;102475.81;5069313;28;19912;-66
2023/06/01 09:32:53;;;;;;;10.38;9.77;;;;;;;32.58;22.95;102466.16;5069213;28;20027;-66
2023/06/01 09:35:45;;;;;;;13.25;12.32;;;;;;;29.42;25.84;102484.00;5069468;28;20039;-67
2023/06/01 09:38:11;;;;;;;17.88;16.58;;;;;;;31.05;25.02;102468.56;5069586;28;20066;-66
2023/06/01 09:40:39;;;;;;;15.98;14.98;;;;;;;30.12;25.81;102469.56;5070430;28;20220;-67
2023/06/01 09:43:21;;;;;;;16.42;15.43;;;;;;;31.99;23.81;102474.34;5068981;28;20020;-66
2023/06/01 09:46:05;;;;;;;19.45;18.30;;;;;;;32.16;23.57;102465.81;5070448;28;20056;-66
2023/06/01 09:48:30;;;;;;;29.58;27.92;;;;;;;33.99;22.07;102469.22;5069188;28;20052;-67
2023/06/01 09:50:56;;;;;;;28.38;26.67;;;;;;;33.37;22.12;102462.63;5069105;28;20028;-67
2023/06/01 09:53:21;;;;;;;24.30;22.90;;;;;;;34.55;21.14;102469.91;5069179;28;20017;-67
2023/06/01 09:56:00;;;;;;;22.70;21.40;;;;;;;31.77;23.58;102475.97;5068553;28;20514;-66
2023/06/01 09:58:27;;;;;;;25.15;23.75;;;;;;;31.25;24.04;102480.63;5069496;28;20020;-66
2023/06/01 10:00:53;;;;;;;35.17;33.17;;;;;;;31.01;24.56;102476.00;5068482;28;20055;-66
2023/06/01 10:03:21;;;;;;;33.65;31.63;;;;;;;30.76;24.33;102468.78;5068777;28;20036;-66
2023/06/01 10:05:47;;;;;;;30.80;29.10;;;;;;;30.40;24.98;102467.66;5068727;28;20016;-66
2023/06/01 10:08:15;;;;;;;34.65;32.75;;;;;;;32.76;23.21;102458.44;5068904;28;20081;-66
2023/06/01 10:10:46;;;;;;;37.42;35.47;;;;;;;31.57;24.36;102453.09;5068403;28;20017;-67
2023/06/01 10:13:12;;;;;;;34.13;32.22;;;;;;;31.32;25.67;102464.84;5070109;28;20039;-67
2023/06/01 10:15:37;;;;;;;31.10;29.40;;;;;;;30.01;26.28;102467.59;5069753;28;20028;-66
2023/06/01 10:18:04;;;;;;;22.30;20.80;;;;;;;31.43;25.58;102451.41;5068430;28;20031;-67
2023/06/01 10:20:39;;;;;;;28.20;26.70;;;;;;;33.11;22.95;102457.47;5070525;28;20028;-67
2023/06/01 10:23:05;;;;;;;33.92;32.13;;;;;;;32.43;22.95;102456.56;5069150;28;20150;-66
2023/06/01 10:25:37;;;;;;;35.67;33.67;;;;;;;33.36;23.18;102449.19;5069166;28;20062;-67
2023/06/01 10:28:07;;;;;;;37.13;35.00;;;;;;;32.05;23.05;102452.22;5068203;28;20021;-67
2023/06/01 10:30:33;;;;;;;35.88;33.90;;;;;;;32.87;23.86;102457.59;5068276;28;20021;-67
2023/06/01 10:32:58;;;;;;;35.55;33.47;;;;;;;31.30;24.44;102446.91;5068474;28;20480;-67
2023/06/01 10:35:30;;;;;;;36.55;34.50;;;;;;;31.40;24.78;102457.06;5068770;28;20032;-67
2023/06/01 10:38:14;;;;;;;;;;;;;;;30.51;24.18;102459.72;5068279;28;20119;-67
2023/06/01 10:40:43;;;;;;;26.20;24.80;;;;;;;30.89;24.22;102458.84;5068678;28;19917;-66
2023/06/01 10:43:43;;;;;;;30.92;29.13;;;;;;;31.75;24.44;102461.69;5068797;28;20039;-67
2023/06/01 10:46:40;;;;;;;29.88;27.98;;;;;;;31.69;23.57;102456.75;5068595;28;20031;-67
2023/06/01 10:49:06;;;;;;;29.30;27.70;;;;;;;31.42;23.81;102444.28;5048373;28;20028;-66
2023/06/01 10:51:31;;;;;;;30.15;28.35;;;;;;;32.72;23.53;102453.41;5069434;28;20477;-67
2023/06/01 10:54:26;;;;;;;34.78;32.88;;;;;;;31.74;24.79;102450.03;5068162;28;20032;-67